createdAt,value
2022-07-25T00:02:11.994Z,3.42
2022-07-25T00:04:43.391Z,2.70
2022-07-25T00:07:12.476Z,2.90
2022-07-25T00:09:44.541Z,2.83
2022-07-25T00:12:15.875Z,3.33
2022-07-25T00:14:45.406Z,2.78
2022-07-25T00:17:15.623Z,3.10
2022-07-25T00:19:43.889Z,2.80
2022-07-25T00:22:12.582Z,2.80
2022-07-25T00:24:47.017Z,2.70
2022-07-25T00:27:16.860Z,3.00
2022-07-25T00:29:45.591Z,2.67
2022-07-25T00:32:15.247Z,2.90
2022-07-25T00:34:44.217Z,3.20
2022-07-25T00:37:12.593Z,2.80
2022-07-25T00:39:41.615Z,2.90
2022-07-25T00:42:09.997Z,2.78
2022-07-25T00:44:39.653Z,2.38
2022-07-25T00:47:08.549Z,2.20
2022-07-25T00:49:37.399Z,3.03
2022-07-25T00:52:06.584Z,2.53
2022-07-25T00:54:38.925Z,2.63
2022-07-25T00:57:09.751Z,3.00
2022-07-25T00:59:39.423Z,2.38
2022-07-25T01:02:08.509Z,3.30
2022-07-25T01:04:37.424Z,3.15
2022-07-25T01:07:06.260Z,2.90
2022-07-25T01:09:36.460Z,2.47
2022-07-25T01:12:06.906Z,3.00
2022-07-25T01:14:46.551Z,2.45
2022-07-25T01:17:19.502Z,3.40
2022-07-25T01:19:51.297Z,3.47
2022-07-25T01:22:21.508Z,2.95
2022-07-25T01:24:50.179Z,2.45
2022-07-25T01:27:19.631Z,2.78
2022-07-25T01:29:48.501Z,2.47
2022-07-25T01:32:17.561Z,3.00
2022-07-25T01:34:55.869Z,2.83
2022-07-25T01:37:26.882Z,2.90
2022-07-25T01:39:57.362Z,2.60
2022-07-25T01:42:31.597Z,2.72
2022-07-25T01:45:01.955Z,3.25
2022-07-25T01:47:34.526Z,3.08
2022-07-25T01:50:05.245Z,2.60
2022-07-25T01:52:39.588Z,2.47
2022-07-25T01:57:49.572Z,2.78
2022-07-25T02:00:19.277Z,2.78
2022-07-25T02:03:20.861Z,2.42
2022-07-25T02:05:50.524Z,2.80
2022-07-25T02:08:19.791Z,2.78
2022-07-25T02:10:57.430Z,2.40
2022-07-25T02:13:31.615Z,3.13
2022-07-25T02:16:11.089Z,3.28
2022-07-25T02:18:51.061Z,3.15
2022-07-25T02:21:37.639Z,2.50
2022-07-25T02:24:25.228Z,2.70
2022-07-25T02:26:54.423Z,3.00
2022-07-25T02:29:23.840Z,2.50
2022-07-25T02:31:54.029Z,3.53
2022-07-25T02:34:23.027Z,3.63
2022-07-25T02:36:51.819Z,3.35
2022-07-25T02:39:21.471Z,2.65
2022-07-25T02:41:50.190Z,2.75
2022-07-25T02:44:22.554Z,2.95
2022-07-25T02:46:53.136Z,2.92
2022-07-25T02:49:21.994Z,3.63
2022-07-25T02:54:28.757Z,2.58
2022-07-25T02:56:58.297Z,2.95
2022-07-25T02:59:32.248Z,3.08
2022-07-25T03:04:37.182Z,3.10
2022-07-25T03:07:06.578Z,2.67
2022-07-25T03:09:35.343Z,2.92
2022-07-25T03:12:04.072Z,2.83
2022-07-25T03:14:35.857Z,2.33
2022-07-25T03:17:04.906Z,2.92
2022-07-25T03:19:34.135Z,2.90
2022-07-25T03:22:04.866Z,2.50
2022-07-25T03:24:35.877Z,2.63
2022-07-25T03:27:06.206Z,2.88
2022-07-25T03:29:35.361Z,2.60
2022-07-25T03:32:04.428Z,3.03
2022-07-25T03:34:34.928Z,3.08
2022-07-25T03:37:03.731Z,2.88
2022-07-25T03:39:34.230Z,2.30
2022-07-25T03:42:02.580Z,2.70
2022-07-25T03:44:34.215Z,2.58
2022-07-25T03:47:03.879Z,2.72
2022-07-25T03:49:36.138Z,2.42
2022-07-25T03:52:09.065Z,3.08
2022-07-25T03:54:39.078Z,2.47
2022-07-25T03:57:09.152Z,2.58
2022-07-25T03:59:38.202Z,2.70
2022-07-25T04:02:06.985Z,2.67
2022-07-25T04:04:36.120Z,3.00
2022-07-25T04:07:05.195Z,2.63
2022-07-25T04:09:35.137Z,2.72
2022-07-25T04:12:03.761Z,2.72
2022-07-25T04:14:32.674Z,2.78
2022-07-25T04:17:01.559Z,2.60
2022-07-25T04:19:31.998Z,2.20
2022-07-25T04:22:02.640Z,2.40
2022-07-25T04:24:33.150Z,2.88
2022-07-25T04:27:04.466Z,3.08
2022-07-25T04:29:34.895Z,2.50
2022-07-25T04:32:05.990Z,2.80
2022-07-25T04:34:37.858Z,2.70
2022-07-25T04:37:07.090Z,2.60
2022-07-25T04:39:36.174Z,2.92
2022-07-25T04:42:06.474Z,3.00
2022-07-25T04:44:37.161Z,2.17
2022-07-25T04:47:07.637Z,2.42
2022-07-25T04:49:36.955Z,3.00
2022-07-25T04:52:06.298Z,3.72
2022-07-25T04:54:36.173Z,2.50
2022-07-25T04:57:05.555Z,3.10
2022-07-25T04:59:34.364Z,2.60
2022-07-25T05:02:03.561Z,2.60
2022-07-25T05:04:32.437Z,2.95
2022-07-25T05:07:03.521Z,2.25
2022-07-25T05:09:33.824Z,2.42
2022-07-25T05:12:02.564Z,2.88
2022-07-25T05:14:33.162Z,2.55
2022-07-25T05:17:01.883Z,2.80
2022-07-25T05:19:31.682Z,2.53
2022-07-25T05:22:00.794Z,2.97
2022-07-25T05:24:34.325Z,2.28
2022-07-25T05:27:04.786Z,2.40
2022-07-25T05:29:36.303Z,2.40
2022-07-25T05:32:06.469Z,2.50
2022-07-25T05:34:36.952Z,3.15
2022-07-25T05:37:08.223Z,2.55
2022-07-25T05:39:44.138Z,2.53
2022-07-25T05:42:13.038Z,2.80
2022-07-25T05:44:42.043Z,2.90
2022-07-25T05:47:13.386Z,1.98
2022-07-25T05:49:42.481Z,2.33
2022-07-25T05:52:13.317Z,2.42
2022-07-25T05:54:42.835Z,2.75
2022-07-25T05:57:12.307Z,2.63
2022-07-25T05:59:40.680Z,3.45
2022-07-25T06:02:10.328Z,2.67
2022-07-25T06:04:39.082Z,2.45
2022-07-25T06:07:07.955Z,2.80
2022-07-25T06:09:38.592Z,2.60
2022-07-25T06:12:07.772Z,2.72
2022-07-25T06:14:39.320Z,2.80
2022-07-25T06:17:09.678Z,2.78
2022-07-25T06:19:39.511Z,2.50
2022-07-25T06:22:11.562Z,2.45
2022-07-25T06:24:46.465Z,2.60
2022-07-25T06:27:20.181Z,2.28
2022-07-25T06:29:51.057Z,2.33
2022-07-25T06:32:19.748Z,2.25
2022-07-25T06:34:51.112Z,2.35
2022-07-25T06:37:20.707Z,2.15
2022-07-25T06:39:50.130Z,2.95
2022-07-25T06:42:20.019Z,2.90
2022-07-25T06:44:50.953Z,3.17
2022-07-25T06:47:20.549Z,2.60
2022-07-25T06:49:49.042Z,2.35
2022-07-25T06:52:17.568Z,6.22
2022-07-25T06:54:46.533Z,2.75
2022-07-25T06:57:16.042Z,2.20
2022-07-25T06:59:44.948Z,2.30
2022-07-25T07:02:14.277Z,2.42
2022-07-25T07:04:43.285Z,2.72
2022-07-25T07:07:13.737Z,3.35
2022-07-25T07:09:44.066Z,2.33
2022-07-25T07:12:13.501Z,2.33
2022-07-25T07:14:44.346Z,2.30
2022-07-25T07:17:18.329Z,2.92
2022-07-25T07:19:50.182Z,3.08
2022-07-25T07:22:20.239Z,2.60
2022-07-25T07:24:52.933Z,2.65
2022-07-25T07:27:23.535Z,2.83
2022-07-25T07:29:52.260Z,2.38
2022-07-25T07:32:20.976Z,2.58
2022-07-25T07:34:49.730Z,2.92
2022-07-25T07:37:18.852Z,3.10
2022-07-25T07:39:47.190Z,2.90
2022-07-25T07:42:17.457Z,3.42
2022-07-25T07:44:45.999Z,2.70
2022-07-25T07:47:14.835Z,3.17
2022-07-25T07:49:50.047Z,2.55
2022-07-25T07:55:05.889Z,2.58
2022-07-25T07:57:41.249Z,2.22
2022-07-25T08:00:16.462Z,2.33
2022-07-25T08:03:04.668Z,2.10
2022-07-25T08:05:43.171Z,2.75
2022-07-25T08:08:13.676Z,2.72
2022-07-25T08:10:44.618Z,2.85
2022-07-25T08:13:16.831Z,2.47
2022-07-25T08:15:50.974Z,3.10
2022-07-25T08:18:20.920Z,3.28
2022-07-25T08:20:50.835Z,2.65
2022-07-25T08:23:20.741Z,2.22
2022-07-25T08:25:51.660Z,4.22
2022-07-25T08:28:26.505Z,3.00
2022-07-25T08:30:55.566Z,2.72
2022-07-25T08:33:24.538Z,2.83
2022-07-25T08:35:54.664Z,2.33
2022-07-25T08:38:24.305Z,2.88
2022-07-25T08:40:53.027Z,2.50
2022-07-25T08:43:22.387Z,2.55
2022-07-25T08:45:55.328Z,2.65
2022-07-25T08:48:24.699Z,2.00
2022-07-25T08:50:57.065Z,2.40
2022-07-25T08:53:35.131Z,2.88
2022-07-25T08:56:13.412Z,2.58
2022-07-25T08:58:46.462Z,2.45
2022-07-25T09:01:16.338Z,2.30
2022-07-25T09:03:52.324Z,2.35
2022-07-25T09:06:22.047Z,2.63
2022-07-25T09:08:56.833Z,2.53
2022-07-25T09:11:31.956Z,2.75
2022-07-25T09:14:02.479Z,2.50
2022-07-25T09:16:33.053Z,2.42
2022-07-25T09:19:12.111Z,2.97
2022-07-25T09:21:42.106Z,2.22
2022-07-25T09:24:13.472Z,2.65
2022-07-25T09:26:53.642Z,2.13
2022-07-25T09:29:25.239Z,2.22
2022-07-25T09:31:55.062Z,2.60
2022-07-25T09:34:34.428Z,2.88
2022-07-25T09:37:04.206Z,2.40
2022-07-25T09:39:34.852Z,2.83
2022-07-25T09:42:03.634Z,2.30
2022-07-25T09:44:33.314Z,2.88
2022-07-25T09:47:11.193Z,3.17
2022-07-25T09:49:47.415Z,2.50
2022-07-25T09:52:20.495Z,3.35
2022-07-25T09:54:51.324Z,3.13
2022-07-25T09:57:25.923Z,5.18
2022-07-25T09:59:56.065Z,3.13
2022-07-25T10:02:35.380Z,2.53
2022-07-25T10:05:16.394Z,2.70
2022-07-25T10:07:49.369Z,2.75
2022-07-25T10:10:28.481Z,3.30
2022-07-25T10:13:10.684Z,2.97
2022-07-25T10:15:53.177Z,2.50
2022-07-25T10:18:23.262Z,2.15
2022-07-25T10:20:54.656Z,1.70
2022-07-25T10:23:27.054Z,2.30
2022-07-25T10:26:01.629Z,1.58
2022-07-25T10:28:48.574Z,2.00
2022-07-25T10:31:21.800Z,1.65
2022-07-25T10:34:02.207Z,2.22
2022-07-25T10:36:51.141Z,2.38
2022-07-25T10:39:21.324Z,2.00
2022-07-25T10:41:55.771Z,2.13
2022-07-25T10:44:30.573Z,1.90
2022-07-25T10:47:25.913Z,1.70
2022-07-25T10:50:16.907Z,1.40
2022-07-25T10:53:00.913Z,1.73
2022-07-25T10:55:30.642Z,2.10
2022-07-25T10:58:21.863Z,1.50
2022-07-25T11:00:53.060Z,2.03
2022-07-25T11:03:41.680Z,1.70
2022-07-25T11:06:36.441Z,1.38
2022-07-25T11:09:26.941Z,1.45
2022-07-25T11:11:58.461Z,1.35
2022-07-25T11:14:35.538Z,1.33
2022-07-25T11:17:14.743Z,1.35
2022-07-25T11:19:55.783Z,1.33
2022-07-25T11:22:26.138Z,1.63
2022-07-25T11:24:55.192Z,1.23
2022-07-25T11:27:25.514Z,1.17
2022-07-25T11:29:54.393Z,1.40
2022-07-25T11:32:23.774Z,1.30
2022-07-25T11:34:54.415Z,1.48
2022-07-25T11:37:23.899Z,1.30
2022-07-25T11:39:52.986Z,1.33
2022-07-25T11:42:22.901Z,1.10
2022-07-25T11:44:54.443Z,1.10
2022-07-25T11:47:29.107Z,2.20
2022-07-25T11:49:59.085Z,2.37
2022-07-25T11:52:32.090Z,1.55
2022-07-25T11:55:00.424Z,1.60
2022-07-25T11:57:32.366Z,1.40
2022-07-25T12:00:03.422Z,1.33
2022-07-25T12:02:48.168Z,1.20
2022-07-25T12:05:17.754Z,1.23
2022-07-25T12:07:50.685Z,1.20
2022-07-25T12:10:39.585Z,1.20
2022-07-25T12:13:10.509Z,1.02
2022-07-25T12:15:41.765Z,1.08
2022-07-25T12:18:14.850Z,1.17
2022-07-25T12:20:44.624Z,1.20
2022-07-25T12:23:14.174Z,1.60
2022-07-25T12:25:47.859Z,1.30
2022-07-25T12:28:16.916Z,1.52
2022-07-25T12:30:46.468Z,2.15
2022-07-25T12:33:24.983Z,1.33
2022-07-25T12:35:54.042Z,1.65
2022-07-25T12:38:29.967Z,1.25
2022-07-25T12:41:08.120Z,1.55
2022-07-25T12:43:38.377Z,1.63
2022-07-25T12:46:08.163Z,1.02
2022-07-25T12:48:39.016Z,1.58
2022-07-25T12:51:08.213Z,1.00
2022-07-25T12:53:42.272Z,1.33
2022-07-25T12:56:11.041Z,0.95
2022-07-25T12:58:39.434Z,0.93
2022-07-25T13:01:09.175Z,1.27
2022-07-25T13:03:38.322Z,1.00
2022-07-25T13:06:07.445Z,1.50
2022-07-25T13:08:38.106Z,2.00
2022-07-25T13:11:07.349Z,1.35
2022-07-25T13:13:38.742Z,1.30
2022-07-25T13:16:08.226Z,1.40
2022-07-25T13:18:38.179Z,1.40
2022-07-25T13:21:09.120Z,1.40
2022-07-25T13:23:38.247Z,1.35
2022-07-25T13:26:08.759Z,1.27
2022-07-25T13:28:37.876Z,1.08
2022-07-25T13:31:07.942Z,1.30
2022-07-25T13:33:37.286Z,0.90
2022-07-25T13:36:05.848Z,1.02
2022-07-25T13:38:36.033Z,1.10
2022-07-25T13:41:04.929Z,0.90
2022-07-25T13:43:36.444Z,1.40
2022-07-25T13:46:05.714Z,1.10
2022-07-25T13:48:37.529Z,1.67
2022-07-25T13:51:08.945Z,1.10
2022-07-25T13:53:37.219Z,1.00
2022-07-25T13:56:10.310Z,1.17
2022-07-25T13:58:41.605Z,0.80
2022-07-25T14:01:11.511Z,1.00
2022-07-25T14:03:44.564Z,1.10
2022-07-25T14:06:13.061Z,0.90
2022-07-25T14:08:46.022Z,0.80
2022-07-25T14:11:15.091Z,0.60
2022-07-25T14:13:46.299Z,1.10
2022-07-25T14:16:17.362Z,0.80
2022-07-25T14:18:45.894Z,1.60
2022-07-25T14:21:14.858Z,0.60
2022-07-25T14:23:45.799Z,0.50
2022-07-25T14:26:16.300Z,0.70
2022-07-25T14:28:45.885Z,0.95
2022-07-25T14:31:15.850Z,1.10
2022-07-25T14:33:46.055Z,1.42
2022-07-25T14:36:16.221Z,0.80
2022-07-25T14:38:47.374Z,0.75
2022-07-25T14:41:16.206Z,0.80
2022-07-25T14:43:44.982Z,0.82
2022-07-25T14:46:14.072Z,0.85
2022-07-25T14:48:42.884Z,0.85
2022-07-25T14:51:11.501Z,1.25
2022-07-25T14:53:40.342Z,1.88
2022-07-25T14:56:11.023Z,1.17
2022-07-25T14:58:40.220Z,1.13
2022-07-25T15:01:09.968Z,1.20
2022-07-25T15:03:39.981Z,1.10
2022-07-25T15:06:10.356Z,0.75
2022-07-25T15:08:39.946Z,1.20
2022-07-25T15:11:09.030Z,1.13
2022-07-25T15:13:38.424Z,1.33
2022-07-25T15:16:08.232Z,1.73
2022-07-25T15:19:05.306Z,1.15
2022-07-25T15:21:28.284Z,1.25
2022-07-25T15:23:57.483Z,1.20
2022-07-25T15:26:26.547Z,1.17
2022-07-25T15:28:55.172Z,1.30
2022-07-25T15:31:26.214Z,0.90
2022-07-25T15:33:55.408Z,1.00
2022-07-25T15:36:29.774Z,0.88
2022-07-25T15:38:58.678Z,1.10
2022-07-25T15:41:28.482Z,0.85
2022-07-25T15:43:59.722Z,0.82
2022-07-25T15:46:29.044Z,0.73
2022-07-25T15:48:58.733Z,0.90
2022-07-25T15:51:30.106Z,0.93
2022-07-25T15:54:01.204Z,1.13
2022-07-25T15:56:32.337Z,1.20
2022-07-25T15:59:03.232Z,0.63
2022-07-25T16:01:34.659Z,0.60
2022-07-25T16:04:04.595Z,1.05
2022-07-25T16:06:35.296Z,0.95
2022-07-25T16:09:06.396Z,0.50
2022-07-25T16:11:41.522Z,1.13
2022-07-25T16:14:10.198Z,0.60
2022-07-25T16:16:38.816Z,0.85
2022-07-25T16:19:09.764Z,1.15
2022-07-25T16:21:39.949Z,0.77
2022-07-25T16:24:09.371Z,0.98
2022-07-25T16:26:39.053Z,1.02
2022-07-25T16:29:11.162Z,0.43
2022-07-25T16:31:46.830Z,0.90
2022-07-25T16:34:28.611Z,0.80
2022-07-25T16:37:01.307Z,0.50
2022-07-25T16:39:44.139Z,0.80
2022-07-25T16:42:18.809Z,0.57
2022-07-25T16:44:49.404Z,0.85
2022-07-25T16:47:19.114Z,0.80
2022-07-25T16:49:49.563Z,0.77
2022-07-25T16:52:18.211Z,1.17
2022-07-25T16:54:46.537Z,0.73
2022-07-25T16:57:24.683Z,1.02
2022-07-25T16:59:55.883Z,1.13
2022-07-25T17:02:29.725Z,1.10
2022-07-25T17:04:58.825Z,0.60
2022-07-25T17:07:38.473Z,0.70
2022-07-25T17:10:07.186Z,0.93
2022-07-25T17:12:51.329Z,0.90
2022-07-25T17:15:23.117Z,1.27
2022-07-25T17:18:05.477Z,0.80
2022-07-25T17:20:34.678Z,1.20
2022-07-25T17:23:14.352Z,1.00
2022-07-25T17:25:50.777Z,1.67
2022-07-25T17:28:24.921Z,0.90
2022-07-25T17:31:00.669Z,0.90
2022-07-25T17:33:45.057Z,0.90
2022-07-25T17:36:26.543Z,1.05
2022-07-25T17:39:03.395Z,0.60
2022-07-25T17:41:36.332Z,1.20
2022-07-25T17:44:10.034Z,0.68
2022-07-25T17:46:40.830Z,1.35
2022-07-25T17:49:10.350Z,0.73
2022-07-25T17:51:39.165Z,1.15
2022-07-25T17:54:07.851Z,0.68
2022-07-25T17:56:39.444Z,0.80
2022-07-25T17:59:08.246Z,0.60
2022-07-25T18:01:37.170Z,0.90
2022-07-25T18:04:07.562Z,0.70
2022-07-25T18:06:38.212Z,0.70
2022-07-25T18:09:06.744Z,0.65
2022-07-25T18:11:38.339Z,0.82
2022-07-25T18:14:07.535Z,0.30
2022-07-25T18:16:36.300Z,0.32
2022-07-25T18:19:05.302Z,0.20
2022-07-25T18:21:33.960Z,0.20
2022-07-25T18:24:02.992Z,0.40
2022-07-25T18:26:33.208Z,0.30
2022-07-25T18:29:01.929Z,0.10
2022-07-25T18:31:30.970Z,0.25
2022-07-25T18:34:00.281Z,0.40
2022-07-25T18:36:30.907Z,0.25
2022-07-25T18:39:00.274Z,0.38
2022-07-25T18:41:37.447Z,0.93
2022-07-25T18:44:08.898Z,1.23
2022-07-25T18:46:37.818Z,0.15
2022-07-25T18:49:07.173Z,0.80
2022-07-25T18:51:35.561Z,0.20
2022-07-25T18:54:04.120Z,0.30
2022-07-25T18:56:34.883Z,0.30
2022-07-25T18:59:03.534Z,0.52
2022-07-25T19:01:34.353Z,0.30
2022-07-25T19:04:03.784Z,0.30
2022-07-25T19:06:33.456Z,1.20
2022-07-25T19:09:02.362Z,1.15
2022-07-25T19:11:37.689Z,0.30
2022-07-25T19:14:12.209Z,0.57
2022-07-25T19:16:42.425Z,0.10
2022-07-25T19:19:12.789Z,0.10
2022-07-25T19:21:41.194Z,0.35
2022-07-25T19:24:13.078Z,0.20
2022-07-25T19:26:48.060Z,0.28
2022-07-25T19:29:19.563Z,0.30
2022-07-25T19:31:50.624Z,0.28
2022-07-25T19:34:19.338Z,0.30
2022-07-25T19:36:48.161Z,0.20
2022-07-25T19:39:17.418Z,0.20
2022-07-25T19:41:47.130Z,0.30
2022-07-25T19:44:16.085Z,0.20
2022-07-25T19:46:44.868Z,0.57
2022-07-25T19:49:14.636Z,0.10
2022-07-25T19:51:43.218Z,0.20
2022-07-25T19:54:12.508Z,0.10
2022-07-25T19:56:44.030Z,0.15
2022-07-25T19:59:13.714Z,0.30
2022-07-25T20:01:42.517Z,0.20
2022-07-25T20:04:11.967Z,0.10
2022-07-25T20:06:41.547Z,1.17
2022-07-25T20:09:11.207Z,0.30
2022-07-25T20:11:43.167Z,0.10
2022-07-25T20:14:12.512Z,0.20
2022-07-25T20:16:45.132Z,0.10
2022-07-25T20:19:13.466Z,0.38
2022-07-25T20:21:42.182Z,0.22
2022-07-25T20:24:18.031Z,0.30
2022-07-25T20:26:51.856Z,0.30
2022-07-25T20:29:25.954Z,0.20
2022-07-25T20:31:56.313Z,0.30
2022-07-25T20:34:25.404Z,0.10
2022-07-25T20:36:54.697Z,0.20
2022-07-25T20:39:24.028Z,0.38
2022-07-25T20:41:53.946Z,0.43
2022-07-25T20:44:22.515Z,0.30
2022-07-25T20:46:52.523Z,0.43
2022-07-25T20:49:23.750Z,0.20
2022-07-25T20:51:54.718Z,0.20
2022-07-25T20:54:23.894Z,0.20
2022-07-25T20:56:53.107Z,0.40
2022-07-25T20:59:21.801Z,0.20
2022-07-25T21:01:50.729Z,0.17
2022-07-25T21:04:23.489Z,0.13
2022-07-25T21:06:56.672Z,0.57
2022-07-25T21:09:29.629Z,0.10
2022-07-25T21:12:04.523Z,0.10
2022-07-25T21:14:36.306Z,0.15
2022-07-25T21:17:06.655Z,0.40
2022-07-25T21:19:38.653Z,0.22
2022-07-25T21:22:09.666Z,0.30
2022-07-25T21:24:43.338Z,0.28
2022-07-25T21:27:12.282Z,0.50
2022-07-25T21:29:40.598Z,0.20
2022-07-25T21:32:13.565Z,0.35
2022-07-25T21:34:46.289Z,0.10
2022-07-25T21:37:16.670Z,0.30
2022-07-25T21:39:45.538Z,0.20
2022-07-25T21:42:14.294Z,0.22
2022-07-25T21:44:46.413Z,0.35
2022-07-25T21:47:18.489Z,0.40
2022-07-25T21:50:07.517Z,0.32
2022-07-25T21:52:41.112Z,0.20
2022-07-25T21:55:09.875Z,0.35
2022-07-25T21:57:43.397Z,0.65
2022-07-25T22:00:13.014Z,0.30
2022-07-25T22:03:01.912Z,0.35
2022-07-25T22:05:30.732Z,0.25
2022-07-25T22:07:59.619Z,0.30
2022-07-25T22:10:37.207Z,0.75
2022-07-25T22:13:07.153Z,0.70
2022-07-25T22:15:36.061Z,0.50
2022-07-25T22:18:05.329Z,0.35
2022-07-25T22:20:38.692Z,0.50
2022-07-25T22:23:09.004Z,0.70
2022-07-25T22:25:40.909Z,0.57
2022-07-25T22:28:14.300Z,0.60
2022-07-25T22:30:42.917Z,0.60
2022-07-25T22:33:20.037Z,1.27
2022-07-25T22:35:49.260Z,0.60
2022-07-25T22:38:19.839Z,1.35
2022-07-25T22:40:50.574Z,1.40
2022-07-25T22:43:21.173Z,1.10
2022-07-25T22:45:51.589Z,0.60
2022-07-25T22:48:22.350Z,0.70
2022-07-25T22:50:51.026Z,0.90
2022-07-25T22:53:20.963Z,0.52
2022-07-25T22:55:51.338Z,0.40
2022-07-25T22:58:21.336Z,0.30
2022-07-25T23:00:52.716Z,0.30
2022-07-25T23:03:25.720Z,0.40
2022-07-25T23:06:03.077Z,0.40
2022-07-25T23:08:34.786Z,0.20
2022-07-25T23:11:05.936Z,0.50
2022-07-25T23:13:36.200Z,0.22
2022-07-25T23:16:05.835Z,0.30
2022-07-25T23:18:40.259Z,0.22
2022-07-25T23:21:08.861Z,0.40
2022-07-25T23:23:38.080Z,0.20
2022-07-25T23:26:06.614Z,0.82
2022-07-25T23:28:36.442Z,0.50
2022-07-25T23:31:06.431Z,0.50
2022-07-25T23:33:35.210Z,0.50
2022-07-25T23:36:04.507Z,1.30
2022-07-25T23:38:33.529Z,0.30
2022-07-25T23:41:03.467Z,0.50
2022-07-25T23:43:56.453Z,0.45
2022-07-25T23:46:29.307Z,0.70
2022-07-25T23:49:01.491Z,0.30
2022-07-25T23:51:35.021Z,0.30
2022-07-25T23:54:06.203Z,0.30
2022-07-25T23:56:36.577Z,0.40
2022-07-25T23:59:06.718Z,0.30
